Alfred Station, New York
Current Conditions -  °F | °C
As of 6:56 PM on Friday 31 Oct 2014 (Local Time) from KELZ Reporting Station
Light Rain Light Rain  
Wind Chill: 40°   Ceiling: 2100
Heat Index: 40°   Visibility: 9mi
Dew Point: 37°   Wind: 0mph
Humidity: 89%   Direction: NA
Pressure: 29.91"   Gusts: NA
Location:  42.27°N, 77.76°W
Report Text: KELZ 312256Z AUTO 00000KT 9SM -RA OVC021 04/03 A2991 RMK AO2 SLP143 P0001 T00440028
Loading
Personal Weather Stations






























Interactive Weather Map New forecast layout! Learn more

10-Day Weather Forecast

Advertisements
Track Severe Weather on mobile